x

Buoy E01 - Central Maine Shelf (44032) Wave Buoy

5:04 - Sun 23rd Jul 2017 All times are EDT. -4 hours from GMT.

  • Sig Wave height 1.3ft
  • Peak Period 2s
  • Wind
    16mph, 20mph gusts
  • Sea Temp 58°f
  • Aire Temp 60°f
  • Sea Pressure 1009.9mb
  • Buoy E01 - Central Maine Shelf
  • Buoy E01 - Central Maine Shelf

More Historic Weather Station data

Upgrade to MSW Pro to gain access to the past 30 days of data for over 8000 Wavebouys and Weather Stations around the globe.

Join Pro

Comparision Forecast

View Surf forecast
   
dom 07/23 5:04 1.3ft 2s 16 20 mph 1009.9mb 58f 60f
4:04 1.3ft 3s 9 11 mph 1009.8mb 58f 60f
3:04 1.6ft 2s 13 16 mph 1009.3mb 58f 62f
2:04 2ft 6s 16 18 mph 1009.1mb 58f 63f
1:04 2ft 6s 11 13 mph 1008.9mb 60f 64f
12:04 2.5ft 11s 7 9 mph 1008.4mb 60f 64f
sáb 07/22 11:04 2ft 4s 4 4 mph 1008mb 60f 64f
10:04 2.5ft 6s 7 9 mph 1007.7mb 60f 67f
9:04 1.6ft 3s 7 11 mph 1007.7mb 61f 65f
8:04 1.6ft 6s 4 4 mph 1007.3mb 60f 64f
7:04 1.6ft 6s 7 9 mph 1007.1mb 60f 64f
6:04 2ft 6s 13 13 mph 1007.2mb 60f 66f
5:04 1.3ft 3s 9 11 mph 1007.7mb 60f 65f
4:04 1ft 2s 11 13 mph 1008.1mb 60f 66f
3:04 1.6ft 5s 13 13 mph 1008.3mb 59f 65f
2:04 1.6ft 6s 11 13 mph 1008.7mb 60f 65f
1:04 2ft 11s 11 11 mph 1009.3mb 60f 65f
12:04 1.6ft 6s 9 9 mph 1009.5mb 59f 64f
11:04 1.6ft 6s 7 9 mph 1009.4mb 59f 63f
10:04 1.6ft 6s 7 7 mph 1009.7mb 59f 63f
9:04 1.3ft 6s 2 4 mph 1009.8mb 58f 65f
8:04 1.6ft 11s 2 4 mph 1009.6mb 58f 65f
7:04 1.3ft 8s 4 4 mph 1009.1mb 58f 64f
6:04 2ft 6s 4 7 mph 1008.9mb 58f 63f
4:04 2ft 8s 4 7 mph 1008.4mb 60f 64f
3:04 2ft 8s 4 4 mph 1008mb 61f 65f
2:04 2.5ft 11s 7 7 mph 1007.7mb 60f 65f
1:04 2.5ft 11s 7 9 mph 1007.4mb 61f 65f
12:04 2.5ft 6s 7 7 mph 1007.1mb 60f 64f
vie 07/21 11:04 2.5ft 6s 4 4 mph 1006.9mb 61f 64f
10:04 2ft 6s 7 7 mph 1006.8mb 61f 65f
9:04 2.5ft 6s 11 13 mph 1006.8mb 61f 66f
8:04 2ft 3s 9 11 mph 1006.4mb 61f 66f
7:04 2ft 6s 9 9 mph 1006.6mb 61f 66f
6:04 1.3ft 3s 9 11 mph 1006.5mb 62f 67f
5:04 2ft 8s 7 9 mph 1006.8mb 61f 66f
4:04 1.3ft 2s 16 16 mph 1006.8mb 62f 67f
3:04 1.3ft 2s 11 13 mph 1007.4mb 62f 67f
2:04 1.6ft 6s 9 11 mph 1008.1mb 62f 66f
1:04 2ft 11s 9 11 mph 1008.2mb 60f 65f
12:04 2.5ft 11s 7 7 mph 1008.7mb 59f 65f
11:04 1.6ft 8s 7 7 mph 1009.3mb 60f 65f
10:04 1.3ft 6s 4 4 mph 1009.1mb 60f 65f
9:04 1.3ft 6s 2 4 mph 1008.7mb 60f 65f
8:04 1.6ft 6s 2 4 mph 1009mb 60f 65f
7:04 1.6ft 11s 4 7 mph 1008.9mb 60f 64f
6:04 1.6ft 8s 4 4 mph 1008.7mb 60f 64f
5:04 1.3ft 8s 2 4 mph 1008.5mb 60f 63f
4:04 1.3ft 6s  -  2 mph 1008.1mb 61f 63f
3:04 1.3ft 5s 4 4 mph 1007.7mb 62f 64f
2:04 1.6ft 5s 4 4 mph 1008.1mb 62f 65f
1:04 1.6ft 4s 2 4 mph 1008.1mb 61f 64f
12:04 2ft 4s 7 7 mph 1008.3mb 63f 65f
jue 07/20 11:04 2ft 4s 4 7 mph 1008.4mb 62f 64f
10:04 2.5ft 4s 7 9 mph 1008.4mb 61f 66f
9:04 1.6ft 5s 7 9 mph 1008.3mb 61f 68f
8:04 1.6ft 6s 7 9 mph 1009mb 62f 68f
7:04 2ft 8s 7 7 mph 1008.8mb 62f 68f
6:04 2ft 6s 7 9 mph 1008.6mb 63f 66f
5:04 2ft 5s 9 9 mph 1009.6mb 63f 67f
4:04 2ft 5s 7 9 mph 1009.9mb 62f 68f
3:04 2ft 5s 7 7 mph 1010.4mb 65f 69f
2:04 1.6ft 5s 4 4 mph 1010.9mb 65f 69f
1:04 2.5ft 5s 4 7 mph 1011.9mb 65f 69f
12:04 2.5ft 5s 2 4 mph 1012.5mb 63f 70f
11:04 2ft 5s 4 4 mph 1012.7mb 61f 68f
10:04 2ft 5s 2 4 mph 1012.1mb 61f 67f
9:04 2ft 6s 2 2 mph 1012.4mb 61f 66f
8:04 2.5ft 5s 2 2 mph 1013mb 62f 64f
7:04 2ft 5s 2 2 mph 1012.8mb 62f 64f
6:04 1.6ft 6s  -  2 mph 1012.2mb 62f 63f
5:04 1.6ft 8s 4 4 mph 1012.5mb 61f 64f
4:04 1.6ft 6s 4 4 mph 1012.2mb 60f 63f
3:04 2ft 6s 4 4 mph 1012.2mb 61f 62f
2:04 1.6ft 8s 2 2 mph 1012.5mb 61f 62f
1:04 2.5ft 8s 2 4 mph 1012.5mb 62f 62f
12:04 2.5ft 5s 4 4 mph 1012.5mb 63f 63f
mié 07/19 11:04 2.5ft 11s 4 7 mph 1013.1mb 63f 63f
10:04 1.6ft 5s 4 7 mph 1012.9mb 63f 64f
9:04 1.6ft 5s 4 4 mph 1012.2mb 64f 66f
8:04 2ft 6s 4 4 mph 1012.1mb 64f 66f
7:04 2ft 8s 7 9 mph 1012.1mb 64f 66f
6:04 2ft 6s 4 4 mph 1012.6mb 63f 66f
5:04 2ft 8s 7 7 mph 1012.8mb 63f 66f
4:04 2ft 6s 7 9 mph 1013.5mb 62f 65f
3:04 2ft 8s 7 9 mph 1013.7mb 62f 65f
2:04 2ft 8s 7 7 mph 1014.5mb 63f 65f
1:04 2ft 11s 4 4 mph 1014.9mb 63f 64f
12:04 2ft 8s 2 4 mph 1015.5mb 63f 64f